createdAt,value
2023-05-23T00:01:33.795Z,23.67
2023-05-23T00:07:02.837Z,23.68
2023-05-23T00:09:32.617Z,23.76
2023-05-23T00:12:00.962Z,23.76
2023-05-23T00:14:46.497Z,23.84
2023-05-23T00:17:33.430Z,23.74
2023-05-23T00:20:01.549Z,23.75
2023-05-23T00:22:29.916Z,23.83
2023-05-23T00:25:02.237Z,23.71
2023-05-23T00:31:12.420Z,23.87
2023-05-23T00:34:00.376Z,23.97
2023-05-23T00:36:28.490Z,23.97
2023-05-23T00:38:56.712Z,23.90
2023-05-23T00:41:33.271Z,23.95
2023-05-23T00:44:01.794Z,23.99
2023-05-23T00:46:31.027Z,23.95
2023-05-23T00:51:53.962Z,23.97
2023-05-23T00:55:05.688Z,23.98
2023-05-23T00:57:35.662Z,23.97
2023-05-23T01:00:04.723Z,24.02
2023-05-23T01:02:36.770Z,24.02
2023-05-23T01:05:05.300Z,24.01
2023-05-23T01:07:33.634Z,23.96
2023-05-23T01:10:01.870Z,23.80
2023-05-23T01:12:37.465Z,23.73
2023-05-23T01:15:10.674Z,23.65
2023-05-23T01:17:48.904Z,23.62
2023-05-23T01:20:21.020Z,23.42
2023-05-23T01:23:23.380Z,23.49
2023-05-23T01:26:14.799Z,23.52
2023-05-23T01:28:48.149Z,23.54
2023-05-23T01:31:18.303Z,23.52
2023-05-23T01:33:50.096Z,23.56
2023-05-23T01:36:19.500Z,23.57
2023-05-23T01:38:47.828Z,23.52
2023-05-23T01:41:16.405Z,23.51
2023-05-23T01:43:46.392Z,23.55
2023-05-23T01:46:15.613Z,23.53
2023-05-23T01:48:44.390Z,23.60
2023-05-23T01:51:13.330Z,23.58
2023-05-23T01:53:41.957Z,23.62
2023-05-23T01:56:10.487Z,23.61
2023-05-23T01:58:39.006Z,23.62
2023-05-23T02:01:08.683Z,23.60
2023-05-23T02:03:38.008Z,23.53
2023-05-23T02:06:13.070Z,23.54
2023-05-23T02:08:58.534Z,23.56
2023-05-23T02:11:26.949Z,23.55
2023-05-23T02:13:55.381Z,23.52
2023-05-23T02:17:07.768Z,23.47
2023-05-23T02:23:01.209Z,23.35
2023-05-23T02:25:48.133Z,23.29
2023-05-23T02:32:10.707Z,23.12
2023-05-23T02:35:37.490Z,23.14
2023-05-23T02:38:07.016Z,23.15
2023-05-23T02:40:35.341Z,23.05
2023-05-23T02:43:03.649Z,23.04
2023-05-23T02:45:32.004Z,23.00
2023-05-23T02:48:00.758Z,23.04
2023-05-23T02:50:43.760Z,23.05
2023-05-23T02:53:13.636Z,23.01
2023-05-23T02:55:43.104Z,23.01
2023-05-23T02:58:46.250Z,23.02
2023-05-23T03:04:41.651Z,22.87
2023-05-23T03:07:20.377Z,22.90
2023-05-23T03:09:54.317Z,22.87
2023-05-23T03:12:25.757Z,22.77
2023-05-23T03:14:54.994Z,22.76
2023-05-23T03:17:23.289Z,22.77
2023-05-23T03:23:17.090Z,22.76
2023-05-23T03:26:08.685Z,22.67
2023-05-23T03:28:52.985Z,22.76
2023-05-23T03:31:21.341Z,22.69
2023-05-23T03:33:50.111Z,22.71
2023-05-23T03:36:36.040Z,22.67
2023-05-23T03:39:12.483Z,22.74
2023-05-23T03:41:42.046Z,22.70
2023-05-23T03:47:07.343Z,22.62
2023-05-23T03:49:36.422Z,22.59
2023-05-23T03:52:04.849Z,22.45
2023-05-23T03:54:39.572Z,22.52
2023-05-23T03:57:10.172Z,22.48
2023-05-23T04:00:17.850Z,22.53
2023-05-23T04:02:47.397Z,22.59
2023-05-23T04:05:16.786Z,22.54
2023-05-23T04:07:46.880Z,22.57
2023-05-23T04:10:33.651Z,22.53
2023-05-23T04:13:17.387Z,22.47
2023-05-23T04:15:50.119Z,22.46
2023-05-23T04:18:18.946Z,22.35
2023-05-23T04:20:48.023Z,22.50
2023-05-23T04:23:16.120Z,22.51
2023-05-23T04:25:44.849Z,22.59
2023-05-23T04:28:17.872Z,22.54
2023-05-23T04:31:04.274Z,22.71
2023-05-23T04:33:34.453Z,22.74
2023-05-23T04:36:09.179Z,22.80
2023-05-23T04:38:38.573Z,22.71
2023-05-23T04:41:11.415Z,22.57
2023-05-23T04:43:42.761Z,22.80
2023-05-23T04:46:11.238Z,22.63
2023-05-23T04:48:39.612Z,22.76
2023-05-23T04:51:08.731Z,22.74
2023-05-23T04:53:39.390Z,23.00
2023-05-23T04:56:09.900Z,22.93
2023-05-23T04:58:52.639Z,22.87
2023-05-23T05:01:24.652Z,22.88
2023-05-23T05:03:53.309Z,23.06
2023-05-23T05:06:22.186Z,23.09
2023-05-23T05:08:50.617Z,23.18
2023-05-23T05:11:18.761Z,22.97
2023-05-23T05:14:01.698Z,23.18
2023-05-23T05:16:31.904Z,23.12
2023-05-23T05:19:01.820Z,23.27
2023-05-23T05:21:54.369Z,23.10
2023-05-23T05:24:22.868Z,23.26
2023-05-23T05:26:51.312Z,23.28
2023-05-23T05:29:44.340Z,23.08
2023-05-23T05:32:34.008Z,23.09
2023-05-23T05:35:07.879Z,23.43
2023-05-23T05:37:37.833Z,23.38
2023-05-23T05:40:08.524Z,23.57
2023-05-23T05:42:37.193Z,22.96
2023-05-23T05:45:06.699Z,23.62
2023-05-23T05:50:48.076Z,23.35
2023-05-23T05:53:16.421Z,23.34
2023-05-23T05:55:44.503Z,23.57
2023-05-23T05:58:17.909Z,23.57
2023-05-23T06:00:57.414Z,23.48
2023-05-23T06:04:03.461Z,23.04
2023-05-23T06:06:48.343Z,23.23
2023-05-23T06:09:17.147Z,23.11
2023-05-23T06:12:16.400Z,22.92
2023-05-23T06:14:51.748Z,22.99
2023-05-23T06:17:19.833Z,22.69
2023-05-23T06:23:08.858Z,22.63
2023-05-23T06:25:37.155Z,22.85
2023-05-23T06:31:00.632Z,22.93
2023-05-23T06:36:49.076Z,22.73
2023-05-23T06:39:18.686Z,22.99
2023-05-23T06:41:48.221Z,23.25
2023-05-23T06:50:38.624Z,23.55
2023-05-23T06:53:07.978Z,23.30
2023-05-23T06:55:37.365Z,23.36
2023-05-23T06:58:05.819Z,23.56
2023-05-23T07:00:34.528Z,23.62
2023-05-23T07:03:04.053Z,23.50
2023-05-23T07:05:34.566Z,23.43
2023-05-23T07:08:03.099Z,23.66
2023-05-23T07:10:48.508Z,23.55
2023-05-23T07:13:19.102Z,23.58
2023-05-23T07:15:47.184Z,23.40
2023-05-23T07:18:15.311Z,23.57
2023-05-23T07:21:23.352Z,23.61
2023-05-23T07:23:51.723Z,23.65
2023-05-23T07:26:21.087Z,23.70
2023-05-23T07:28:51.425Z,23.75
2023-05-23T07:31:20.215Z,23.63
2023-05-23T07:33:48.340Z,23.63
2023-05-23T07:36:47.622Z,23.56
2023-05-23T07:39:24.508Z,23.62
2023-05-23T07:41:53.136Z,23.49
2023-05-23T07:44:29.305Z,23.35
2023-05-23T07:50:05.646Z,23.56
2023-05-23T07:52:34.016Z,23.49
2023-05-23T07:55:03.303Z,23.46
2023-05-23T07:57:32.350Z,23.33
2023-05-23T08:00:53.909Z,23.40
2023-05-23T08:06:20.838Z,23.22
2023-05-23T08:09:35.810Z,23.63
2023-05-23T08:12:23.946Z,23.74
2023-05-23T08:14:52.798Z,23.98
2023-05-23T08:18:31.115Z,24.21
2023-05-23T08:21:03.126Z,24.38
2023-05-23T08:23:31.781Z,24.48
2023-05-23T08:26:02.178Z,24.38
2023-05-23T08:28:34.641Z,24.59
2023-05-23T08:31:17.976Z,24.72
2023-05-23T08:33:47.370Z,24.62
2023-05-23T08:36:17.359Z,25.02
2023-05-23T08:38:46.510Z,25.05
2023-05-23T08:41:22.778Z,25.35
2023-05-23T08:44:21.400Z,25.11
2023-05-23T08:46:54.539Z,25.29
2023-05-23T08:49:39.428Z,25.43
2023-05-23T08:52:13.071Z,25.09
2023-05-23T08:54:53.515Z,25.17
2023-05-23T08:57:22.294Z,25.23
2023-05-23T08:59:56.575Z,25.20
2023-05-23T09:02:25.755Z,25.23
2023-05-23T09:04:54.820Z,25.28
2023-05-23T09:07:24.641Z,25.27
2023-05-23T09:09:53.508Z,25.31
2023-05-23T09:12:27.155Z,25.55
2023-05-23T09:14:57.842Z,25.37
2023-05-23T09:17:26.902Z,25.58
2023-05-23T09:19:55.086Z,25.75
2023-05-23T09:22:27.536Z,25.67
2023-05-23T09:25:48.008Z,25.81
2023-05-23T09:28:22.511Z,25.66
2023-05-23T09:36:56.974Z,25.13
2023-05-23T09:39:26.791Z,25.49
2023-05-23T09:41:54.956Z,25.08
2023-05-23T09:44:24.718Z,25.59
2023-05-23T09:46:55.339Z,25.97
2023-05-23T09:49:23.707Z,25.72
2023-05-23T09:52:01.348Z,25.59
2023-05-23T09:54:31.152Z,25.74
2023-05-23T09:57:01.996Z,25.34
2023-05-23T09:59:33.327Z,25.38
2023-05-23T10:06:06.947Z,25.14
2023-05-23T10:15:29.516Z,25.39
2023-05-23T10:21:51.558Z,24.68
2023-05-23T10:24:34.027Z,24.88
2023-05-23T10:27:04.485Z,24.50
2023-05-23T10:29:35.414Z,24.26
2023-05-23T10:32:05.689Z,24.30
2023-05-23T10:34:38.718Z,24.33
2023-05-23T10:37:18.515Z,24.55
2023-05-23T10:40:02.377Z,24.63
2023-05-23T10:46:22.794Z,24.57
2023-05-23T10:49:11.433Z,24.98
2023-05-23T10:55:28.134Z,24.50
2023-05-23T10:58:20.477Z,24.62
2023-05-23T11:01:02.487Z,24.54
2023-05-23T11:03:57.550Z,24.13
2023-05-23T11:06:41.277Z,24.31
2023-05-23T11:09:12.587Z,23.99
2023-05-23T11:12:05.993Z,23.31
2023-05-23T11:14:55.379Z,23.50
2023-05-23T11:17:51.159Z,22.62
2023-05-23T11:20:23.549Z,22.54
2023-05-23T11:23:09.188Z,22.72
2023-05-23T11:25:42.917Z,22.32
2023-05-23T11:28:11.839Z,22.65
2023-05-23T11:30:42.157Z,22.67
2023-05-23T11:33:18.702Z,22.88
2023-05-23T11:35:49.624Z,23.10
2023-05-23T11:38:18.581Z,22.75
2023-05-23T11:40:48.868Z,22.42
2023-05-23T11:43:26.776Z,22.98
2023-05-23T11:46:16.199Z,22.52
2023-05-23T11:51:36.437Z,22.35
2023-05-23T11:54:20.945Z,22.28
2023-05-23T11:57:36.548Z,22.15
2023-05-23T12:00:08.179Z,22.19
2023-05-23T12:02:40.106Z,22.29
2023-05-23T12:05:15.625Z,21.68
2023-05-23T12:07:47.388Z,22.02
2023-05-23T12:10:24.361Z,21.50
2023-05-23T12:12:53.528Z,21.22
2023-05-23T12:15:27.314Z,21.37
2023-05-23T12:17:57.012Z,21.33
2023-05-23T12:20:27.079Z,21.86
2023-05-23T12:22:58.108Z,21.82
2023-05-23T12:25:29.083Z,21.91
2023-05-23T12:27:58.158Z,21.83
2023-05-23T12:30:26.387Z,22.15
2023-05-23T12:32:55.384Z,21.92
2023-05-23T12:35:27.057Z,22.32
2023-05-23T12:37:58.988Z,22.29
2023-05-23T12:40:27.603Z,22.08
2023-05-23T12:43:00.364Z,22.14
2023-05-23T12:45:33.769Z,22.31
2023-05-23T12:48:15.538Z,22.31
2023-05-23T12:50:44.014Z,22.54
2023-05-23T12:53:13.417Z,22.19
2023-05-23T12:55:41.614Z,22.01
2023-05-23T12:58:31.419Z,22.37
2023-05-23T13:00:59.796Z,22.30
2023-05-23T13:03:31.147Z,22.04
2023-05-23T13:06:26.319Z,21.80
2023-05-23T13:09:30.461Z,21.79
2023-05-23T13:12:00.893Z,21.94
2023-05-23T13:14:29.209Z,21.91
2023-05-23T13:16:57.651Z,21.97
2023-05-23T13:19:28.690Z,21.77
2023-05-23T13:21:57.260Z,21.38
2023-05-23T13:24:25.403Z,21.33
2023-05-23T13:26:54.188Z,21.50
2023-05-23T13:29:24.093Z,21.08
2023-05-23T13:31:53.279Z,21.23
2023-05-23T13:34:31.537Z,21.18
2023-05-23T13:36:59.836Z,20.94
2023-05-23T13:39:38.591Z,20.90
2023-05-23T13:42:09.579Z,20.96
2023-05-23T13:44:40.428Z,21.03
2023-05-23T13:47:13.380Z,20.80
2023-05-23T13:49:42.038Z,21.00
2023-05-23T13:52:10.784Z,20.58
2023-05-23T13:54:40.492Z,20.78
2023-05-23T13:57:09.147Z,20.89
2023-05-23T13:59:38.803Z,21.35
2023-05-23T14:02:08.271Z,21.37
2023-05-23T14:04:36.851Z,21.61
2023-05-23T14:07:07.821Z,21.40
2023-05-23T14:09:36.215Z,21.33
2023-05-23T14:12:05.447Z,21.50
2023-05-23T14:14:33.706Z,21.14
2023-05-23T14:17:03.388Z,21.41
2023-05-23T14:19:32.056Z,21.42
2023-05-23T14:22:00.309Z,21.22
2023-05-23T14:24:28.456Z,21.29
2023-05-23T14:26:57.607Z,21.43
2023-05-23T14:29:26.223Z,21.38
2023-05-23T14:31:54.650Z,21.31
2023-05-23T14:34:25.787Z,21.27
2023-05-23T14:36:54.037Z,20.58
2023-05-23T14:39:22.659Z,20.78
2023-05-23T14:41:50.988Z,20.59
2023-05-23T14:44:19.168Z,20.59
2023-05-23T14:46:49.120Z,20.71
2023-05-23T14:49:18.592Z,20.65
2023-05-23T14:51:51.654Z,21.13
2023-05-23T14:54:20.550Z,21.01
2023-05-23T14:56:53.260Z,20.97
2023-05-23T14:59:22.114Z,20.63
2023-05-23T15:01:50.559Z,20.37
2023-05-23T15:04:19.130Z,20.31
2023-05-23T15:06:50.776Z,20.30
2023-05-23T15:09:23.636Z,20.08
2023-05-23T15:11:56.275Z,20.43
2023-05-23T15:14:29.268Z,19.97
2023-05-23T15:16:57.715Z,19.91
2023-05-23T15:19:26.045Z,20.16
2023-05-23T15:21:55.479Z,19.73
2023-05-23T15:24:23.839Z,19.60
2023-05-23T15:26:51.937Z,19.42
2023-05-23T15:29:20.134Z,19.12
2023-05-23T15:31:48.457Z,18.82
2023-05-23T15:34:16.722Z,19.43
2023-05-23T15:36:44.771Z,19.32
2023-05-23T15:39:14.890Z,19.14
2023-05-23T15:41:43.091Z,19.30
2023-05-23T15:44:15.005Z,19.38
2023-05-23T15:46:43.585Z,18.95
2023-05-23T15:49:24.560Z,18.95
2023-05-23T15:51:55.607Z,19.14
2023-05-23T15:54:25.639Z,19.15
2023-05-23T15:56:53.819Z,19.05
2023-05-23T15:59:22.322Z,18.97
2023-05-23T16:01:50.551Z,18.84
2023-05-23T16:04:18.977Z,19.07
2023-05-23T16:06:47.216Z,19.06
2023-05-23T16:09:15.393Z,18.91
2023-05-23T16:11:52.953Z,18.96
2023-05-23T16:14:21.054Z,18.94
2023-05-23T16:16:49.457Z,19.17
2023-05-23T16:19:17.685Z,19.39
2023-05-23T16:21:45.864Z,18.97
2023-05-23T16:24:16.999Z,19.13
2023-05-23T16:26:46.508Z,19.23
2023-05-23T16:29:21.029Z,19.37
2023-05-23T16:31:49.303Z,19.21
2023-05-23T16:34:39.602Z,19.38
2023-05-23T16:37:07.986Z,19.26
2023-05-23T16:39:36.416Z,19.17
2023-05-23T16:42:06.280Z,19.45
2023-05-23T16:44:34.327Z,19.30
2023-05-23T16:47:02.959Z,19.68
2023-05-23T16:50:01.890Z,19.53
2023-05-23T16:52:31.825Z,19.71
2023-05-23T16:54:59.823Z,19.69
2023-05-23T16:57:29.239Z,19.86
2023-05-23T16:59:57.683Z,19.73
2023-05-23T17:02:26.274Z,19.54
2023-05-23T17:04:55.749Z,19.61
2023-05-23T17:07:24.166Z,19.83
2023-05-23T17:09:52.485Z,19.60
2023-05-23T17:12:20.762Z,19.72
2023-05-23T17:14:50.816Z,19.51
2023-05-23T17:17:19.009Z,19.29
2023-05-23T17:19:49.501Z,19.68
2023-05-23T17:22:17.946Z,19.48
2023-05-23T17:24:45.984Z,19.53
2023-05-23T17:27:14.276Z,19.85
2023-05-23T17:29:42.858Z,20.01
2023-05-23T17:32:12.407Z,19.91
2023-05-23T17:34:40.736Z,20.04
2023-05-23T17:37:09.274Z,19.78
2023-05-23T17:39:37.493Z,20.02
2023-05-23T17:42:07.188Z,19.94
2023-05-23T17:44:44.493Z,19.81
2023-05-23T17:47:16.770Z,19.90
2023-05-23T17:49:46.058Z,19.88
2023-05-23T17:52:18.674Z,20.03
2023-05-23T17:54:59.016Z,19.82
2023-05-23T17:57:28.003Z,19.85
2023-05-23T17:59:56.610Z,19.79
2023-05-23T18:02:26.559Z,19.75
2023-05-23T18:09:25.632Z,19.84
2023-05-23T18:12:50.345Z,19.86
2023-05-23T18:15:40.410Z,19.91
2023-05-23T18:18:48.651Z,20.00
2023-05-23T18:21:36.468Z,19.97
2023-05-23T18:24:23.965Z,19.79
2023-05-23T18:27:06.472Z,19.47
2023-05-23T18:29:34.857Z,19.43
2023-05-23T18:32:07.155Z,19.51
2023-05-23T18:38:04.603Z,19.71
2023-05-23T18:40:33.721Z,19.70
2023-05-23T18:43:01.759Z,19.48
2023-05-23T18:45:30.048Z,19.52
2023-05-23T18:48:24.283Z,19.42
2023-05-23T18:50:52.334Z,19.53
2023-05-23T18:53:31.262Z,19.35
2023-05-23T18:56:16.263Z,19.45
2023-05-23T18:58:47.744Z,19.45
2023-05-23T19:01:15.888Z,19.51
2023-05-23T19:03:45.680Z,19.36
2023-05-23T19:06:19.864Z,19.33
2023-05-23T19:09:27.566Z,19.42
2023-05-23T19:12:14.955Z,19.24
2023-05-23T19:14:43.686Z,19.21
2023-05-23T19:17:12.370Z,18.99
2023-05-23T19:19:45.256Z,19.09
2023-05-23T19:22:13.650Z,19.05
2023-05-23T19:24:42.285Z,19.03
2023-05-23T19:27:17.288Z,18.93
2023-05-23T19:29:47.965Z,18.76
2023-05-23T19:32:18.903Z,18.58
2023-05-23T19:35:08.732Z,18.82
2023-05-23T19:37:39.943Z,18.67
2023-05-23T19:40:09.832Z,18.62
2023-05-23T19:42:56.162Z,18.53
2023-05-23T19:45:24.762Z,18.67
2023-05-23T19:48:09.699Z,18.61
2023-05-23T19:50:57.650Z,18.55
2023-05-23T19:56:58.127Z,18.67
2023-05-23T19:59:27.514Z,18.62
2023-05-23T20:01:55.857Z,18.60
2023-05-23T20:04:26.184Z,18.71
2023-05-23T20:06:54.491Z,18.70
2023-05-23T20:09:23.131Z,18.66
2023-05-23T20:11:51.625Z,18.43
2023-05-23T20:14:19.783Z,18.39
2023-05-23T20:16:49.301Z,18.33
2023-05-23T20:19:23.540Z,18.52
2023-05-23T20:22:14.728Z,18.46
2023-05-23T20:24:43.202Z,18.45
2023-05-23T20:27:12.154Z,18.42
2023-05-23T20:29:40.736Z,18.34
2023-05-23T20:32:10.535Z,18.33
2023-05-23T20:34:38.571Z,18.31
2023-05-23T20:37:06.649Z,18.35
2023-05-23T20:42:31.051Z,18.14
2023-05-23T20:45:04.967Z,18.04
2023-05-23T20:48:07.280Z,18.16
2023-05-23T20:50:36.605Z,18.13
2023-05-23T20:53:24.190Z,18.15
2023-05-23T20:55:52.863Z,18.10
2023-05-23T20:58:21.467Z,18.12
2023-05-23T21:00:50.832Z,17.87
2023-05-23T21:03:20.989Z,17.96
2023-05-23T21:06:19.032Z,17.92
2023-05-23T21:08:47.390Z,17.88
2023-05-23T21:11:16.261Z,18.00
2023-05-23T21:14:01.485Z,17.91
2023-05-23T21:16:31.304Z,17.93
2023-05-23T21:19:02.676Z,17.96
2023-05-23T21:21:31.153Z,17.99
2023-05-23T21:23:59.193Z,17.84
2023-05-23T21:30:30.650Z,17.82
2023-05-23T21:32:58.993Z,17.62
2023-05-23T21:39:43.331Z,17.66
2023-05-23T21:42:23.560Z,17.89
2023-05-23T21:45:15.199Z,17.78
2023-05-23T21:47:43.727Z,17.91
2023-05-23T21:50:27.579Z,17.68
2023-05-23T21:53:15.439Z,17.77
2023-05-23T22:02:04.551Z,17.42
2023-05-23T22:04:32.923Z,17.52
2023-05-23T22:07:01.157Z,17.29
2023-05-23T22:13:17.478Z,17.05
2023-05-23T22:18:52.557Z,16.98
2023-05-23T22:21:41.822Z,16.69
2023-05-23T22:24:29.582Z,16.67
2023-05-23T22:26:58.337Z,16.65
2023-05-23T22:29:26.404Z,16.70
2023-05-23T22:32:09.519Z,16.52
2023-05-23T22:34:39.532Z,16.70
2023-05-23T22:37:24.561Z,16.57
2023-05-23T22:39:52.959Z,16.46
2023-05-23T22:48:36.102Z,16.43
2023-05-23T22:51:07.351Z,16.38
2023-05-23T22:57:01.367Z,16.49
2023-05-23T23:03:19.511Z,16.41
2023-05-23T23:09:21.712Z,16.40
2023-05-23T23:11:50.068Z,16.26
2023-05-23T23:14:18.168Z,16.20
2023-05-23T23:16:49.814Z,16.27
2023-05-23T23:22:16.679Z,16.11
2023-05-23T23:27:53.665Z,16.21
2023-05-23T23:30:22.286Z,15.92
2023-05-23T23:32:50.286Z,16.16
2023-05-23T23:38:22.826Z,16.01
2023-05-23T23:40:51.002Z,16.05
2023-05-23T23:47:07.394Z,16.09
2023-05-23T23:49:37.153Z,16.12
2023-05-23T23:59:12.841Z,16.15
